Time;durP1;ratioP1;P1;durP2;ratioP2;P2;SDS_P1;SDS_P2;PMS_P1;PMS_P2;Temp;Humidity;BMP_temperature;BMP_pressure;BME280_temperature;BME280_humidity;BME280_pressure;Samples;Min_cycle;Max_cycle;Signal;HPM_P1;HPM_P2
2022/02/14 00:00:06;;;;;;;7.23;4.07;;;;;;;;;;4938776;28;20298;-73
2022/02/14 00:02:38;;;;;;;6.40;4.10;;;;;;;;;;4913859;29;20249;-72
2022/02/14 00:05:07;;;;;;;6.27;4.40;;;;;;;;;;4888775;29;20705;-72
2022/02/14 00:07:35;;;;;;;7.30;4.23;;;;;;;;;;4898627;29;20227;-71
2022/02/14 00:10:04;;;;;;;6.50;4.20;;;;;;;;;;4939167;28;20246;-71
2022/02/14 00:12:31;;;;;;;7.20;4.30;;;;;;;;;;4939149;28;20337;-71
2022/02/14 00:14:59;;;;;;;7.17;4.30;;;;;;;;;;4922870;29;20218;-71
2022/02/14 00:17:25;;;;;;;5.27;4.03;;;;;;;;;;4948836;28;20573;-72
2022/02/14 00:19:51;;;;;;;8.60;4.13;;;;;;;;;;4919781;29;20690;-72
2022/02/14 00:22:22;;;;;;;6.77;3.93;;;;;;;;;;4923478;28;20306;-72
2022/02/14 00:24:50;;;;;;;6.37;4.27;;;;;;;;;;4917809;29;20717;-73
2022/02/14 00:27:18;;;;;;;6.53;4.67;;;;;;;;;;4892164;28;20211;-72
2022/02/14 00:29:48;;;;;;;6.37;3.90;;;;;;;;;;4907094;29;20218;-73
2022/02/14 00:32:20;;;;;;;7.23;3.90;;;;;;;;;;4902291;29;20243;-72
2022/02/14 00:34:46;;;;;;;7.07;4.10;;;;;;;;;;4889333;29;20231;-72
2022/02/14 00:37:15;;;;;;;7.73;4.37;;;;;;;;;;4921181;28;20285;-72
2022/02/14 00:39:41;;;;;;;6.20;4.13;;;;;;;;;;4910210;29;20220;-72
2022/02/14 00:42:07;;;;;;;7.27;3.90;;;;;;;;;;4903507;28;20577;-72
2022/02/14 00:44:33;;;;;;;5.10;4.10;;;;;;;;;;4921859;29;20389;-72
2022/02/14 00:47:00;;;;;;;6.33;3.93;;;;;;;;;;4929204;29;20242;-72
2022/02/14 00:49:26;;;;;;;7.37;4.23;;;;;;;;;;4902474;29;20709;-71
2022/02/14 00:51:54;;;;;;;5.87;3.60;;;;;;;;;;4902929;29;20236;-73
2022/02/14 00:54:22;;;;;;;4.90;3.57;;;;;;;;;;4905536;28;21459;-72
2022/02/14 00:56:47;;;;;;;6.30;3.77;;;;;;;;;;4906414;29;20358;-73
2022/02/14 00:59:15;;;;;;;6.63;4.10;;;;;;;;;;4933592;28;20222;-72
2022/02/14 01:01:41;;;;;;;5.40;3.77;;;;;;;;;;4902229;29;20227;-73
2022/02/14 01:04:09;;;;;;;6.20;3.60;;;;;;;;;;4901134;28;20234;-73
2022/02/14 01:06:35;;;;;;;3.80;3.40;;;;;;;;;;4907037;29;20226;-72
2022/02/14 01:09:01;;;;;;;4.13;3.60;;;;;;;;;;4909183;29;20649;-72
2022/02/14 01:11:29;;;;;;;5.20;3.17;;;;;;;;;;4934798;29;20258;-73
2022/02/14 01:14:00;;;;;;;6.63;3.37;;;;;;;;;;4914357;29;20305;-72
2022/02/14 01:16:25;;;;;;;5.07;3.37;;;;;;;;;;4937702;28;20218;-72
2022/02/14 01:18:53;;;;;;;4.20;3.00;;;;;;;;;;4926625;29;20270;-72
2022/02/14 01:21:18;;;;;;;5.47;3.50;;;;;;;;;;4902493;29;20226;-71
2022/02/14 01:23:44;;;;;;;7.03;3.63;;;;;;;;;;4911120;29;20227;-72
2022/02/14 01:26:09;;;;;;;7.10;3.70;;;;;;;;;;4921342;28;20639;-71
2022/02/14 01:28:35;;;;;;;7.00;3.37;;;;;;;;;;4945715;28;20246;-72
2022/02/14 01:31:03;;;;;;;5.30;3.40;;;;;;;;;;4921282;29;20236;-72
2022/02/14 01:33:28;;;;;;;5.57;3.33;;;;;;;;;;4916107;29;20725;-72
2022/02/14 01:35:54;;;;;;;4.73;3.53;;;;;;;;;;4918993;29;20270;-73
2022/02/14 01:38:19;;;;;;;6.10;3.70;;;;;;;;;;4904871;28;20305;-72
2022/02/14 01:40:45;;;;;;;8.80;4.40;;;;;;;;;;4953418;28;20249;-72
2022/02/14 01:43:15;;;;;;;6.27;3.67;;;;;;;;;;4920030;28;20227;-72
2022/02/14 01:45:46;;;;;;;6.67;3.33;;;;;;;;;;4921965;29;20242;-72
2022/02/14 01:48:13;;;;;;;9.60;4.97;;;;;;;;;;4904886;28;20245;-72
2022/02/14 01:50:38;;;;;;;4.53;3.60;;;;;;;;;;4934911;29;20227;-72
2022/02/14 01:53:04;;;;;;;6.97;3.80;;;;;;;;;;4901222;29;20239;-72
2022/02/14 01:55:30;;;;;;;5.80;3.20;;;;;;;;;;4919306;29;20246;-72
2022/02/14 01:57:56;;;;;;;4.80;3.17;;;;;;;;;;4902200;29;20234;-72
2022/02/14 02:00:25;;;;;;;5.13;3.63;;;;;;;;;;4950797;28;21182;-72
2022/02/14 02:02:53;;;;;;;4.90;3.27;;;;;;;;;;4910159;29;20318;-72
2022/02/14 02:05:18;;;;;;;4.63;3.33;;;;;;;;;;4933495;28;20219;-71
2022/02/14 02:07:44;;;;;;;5.63;3.00;;;;;;;;;;4921065;29;20225;-72
2022/02/14 02:10:09;;;;;;;5.70;3.10;;;;;;;;;;4906185;29;20224;-72
2022/02/14 02:12:36;;;;;;;5.30;2.83;;;;;;;;;;4886133;29;20258;-72
2022/02/14 02:15:05;;;;;;;4.43;2.90;;;;;;;;;;4930130;29;20237;-72
2022/02/14 02:17:35;;;;;;;4.33;2.90;;;;;;;;;;4902521;29;20307;-72
2022/02/14 02:20:07;;;;;;;3.30;3.00;;;;;;;;;;4913612;29;20250;-72
2022/02/14 02:22:38;;;;;;;5.37;3.10;;;;;;;;;;4907455;29;20233;-71
2022/02/14 02:25:08;;;;;;;5.97;2.83;;;;;;;;;;4927901;29;20266;-72
2022/02/14 02:27:34;;;;;;;3.63;2.60;;;;;;;;;;4919070;29;20722;-71
2022/02/14 02:30:00;;;;;;;5.10;2.97;;;;;;;;;;4894912;29;20253;-71
2022/02/14 02:32:30;;;;;;;4.07;2.70;;;;;;;;;;4904178;28;20250;-71
2022/02/14 02:35:01;;;;;;;5.80;3.00;;;;;;;;;;4927991;29;20698;-71
2022/02/14 02:37:26;;;;;;;4.53;2.90;;;;;;;;;;4885865;29;20285;-71
2022/02/14 02:39:52;;;;;;;5.03;2.90;;;;;;;;;;4912365;29;20311;-73
2022/02/14 02:42:19;;;;;;;4.63;3.10;;;;;;;;;;4933932;28;20248;-71
2022/02/14 02:44:44;;;;;;;5.00;2.90;;;;;;;;;;4879520;29;20274;-71
2022/02/14 02:47:15;;;;;;;3.90;2.63;;;;;;;;;;4919807;28;20226;-71
2022/02/14 02:49:44;;;;;;;4.27;3.07;;;;;;;;;;4899666;29;20879;-71
2022/02/14 02:52:10;;;;;;;5.23;3.87;;;;;;;;;;4931872;29;20374;-71
2022/02/14 02:54:41;;;;;;;3.23;2.70;;;;;;;;;;4921411;29;20214;-72
2022/02/14 02:57:09;;;;;;;4.27;2.87;;;;;;;;;;4935665;28;20226;-71
2022/02/14 02:59:38;;;;;;;6.10;4.00;;;;;;;;;;4891122;29;20808;-72
2022/02/14 03:02:07;;;;;;;11.27;6.57;;;;;;;;;;4919826;28;20226;-72
2022/02/14 03:04:33;;;;;;;4.27;3.03;;;;;;;;;;4917411;29;20241;-72
2022/02/14 03:06:58;;;;;;;8.80;3.77;;;;;;;;;;4910331;29;20215;-72
2022/02/14 03:09:29;;;;;;;6.33;3.50;;;;;;;;;;4886632;29;20228;-71
2022/02/14 03:11:56;;;;;;;5.33;2.53;;;;;;;;;;4903785;29;20235;-71
2022/02/14 03:14:26;;;;;;;4.27;2.80;;;;;;;;;;4913159;29;20227;-71
2022/02/14 03:16:52;;;;;;;6.33;2.90;;;;;;;;;;4919673;29;20281;-71
2022/02/14 03:19:17;;;;;;;4.67;3.20;;;;;;;;;;4919200;28;20227;-72
2022/02/14 03:21:48;;;;;;;4.80;2.70;;;;;;;;;;4898109;29;20224;-72
2022/02/14 03:24:20;;;;;;;5.20;2.97;;;;;;;;;;4896944;29;20311;-71
2022/02/14 03:26:48;;;;;;;4.93;3.00;;;;;;;;;;4924135;29;20351;-72
2022/02/14 03:29:17;;;;;;;4.70;2.73;;;;;;;;;;4900501;29;20226;-71
2022/02/14 03:31:44;;;;;;;4.60;2.97;;;;;;;;;;4948521;28;20324;-71
2022/02/14 03:34:10;;;;;;;5.77;2.73;;;;;;;;;;4920635;29;20599;-72
2022/02/14 03:36:36;;;;;;;4.90;2.90;;;;;;;;;;4940964;28;20234;-73
2022/02/14 03:39:01;;;;;;;4.13;2.97;;;;;;;;;;4901407;29;20235;-71
2022/02/14 03:41:32;;;;;;;3.93;2.80;;;;;;;;;;4912867;29;20273;-72
2022/02/14 03:43:57;;;;;;;6.27;2.70;;;;;;;;;;4901430;29;20239;-71
2022/02/14 03:46:23;;;;;;;4.70;2.70;;;;;;;;;;4918509;28;20219;-72
2022/02/14 03:48:53;;;;;;;4.70;2.90;;;;;;;;;;4919694;29;20259;-71
2022/02/14 03:51:19;;;;;;;3.90;2.83;;;;;;;;;;4893263;29;20234;-73
2022/02/14 03:53:44;;;;;;;5.77;2.73;;;;;;;;;;4884633;29;20231;-71
2022/02/14 03:56:10;;;;;;;5.33;2.77;;;;;;;;;;4921887;29;20314;-72
2022/02/14 03:58:38;;;;;;;2.90;2.50;;;;;;;;;;4900130;29;20286;-72
2022/02/14 04:01:08;;;;;;;5.10;2.73;;;;;;;;;;4922196;28;20262;-72
2022/02/14 04:03:33;;;;;;;5.03;2.77;;;;;;;;;;4936959;29;20229;-72
2022/02/14 04:05:59;;;;;;;3.57;2.40;;;;;;;;;;4931048;29;20228;-72
2022/02/14 04:08:24;;;;;;;5.80;2.93;;;;;;;;;;4918601;28;20278;-72
2022/02/14 04:10:52;;;;;;;3.70;2.73;;;;;;;;;;4911439;29;20224;-71
2022/02/14 04:13:17;;;;;;;4.87;2.53;;;;;;;;;;4906383;29;20227;-72
2022/02/14 04:15:47;;;;;;;4.40;2.33;;;;;;;;;;4906394;29;20693;-72
2022/02/14 04:18:13;;;;;;;3.70;2.60;;;;;;;;;;4930186;28;20740;-72
2022/02/14 04:20:43;;;;;;;6.47;2.80;;;;;;;;;;4937065;29;20219;-72
2022/02/14 04:23:13;;;;;;;5.87;4.00;;;;;;;;;;4904017;29;20607;-71
2022/02/14 04:25:41;;;;;;;6.50;4.77;;;;;;;;;;4920119;29;20242;-71
2022/02/14 04:28:07;;;;;;;4.57;2.87;;;;;;;;;;4914628;29;20211;-70
2022/02/14 04:30:35;;;;;;;3.93;2.57;;;;;;;;;;4922655;29;20250;-71
2022/02/14 04:33:00;;;;;;;5.10;2.63;;;;;;;;;;4896530;29;20314;-70
2022/02/14 04:35:27;;;;;;;5.03;2.60;;;;;;;;;;4906242;29;20248;-71
2022/02/14 04:37:54;;;;;;;4.80;2.50;;;;;;;;;;4906155;29;20226;-71
2022/02/14 04:40:21;;;;;;;4.33;2.90;;;;;;;;;;4906054;28;20230;-71
2022/02/14 04:42:47;;;;;;;4.07;2.40;;;;;;;;;;4900399;29;20309;-71
2022/02/14 04:45:12;;;;;;;5.10;2.70;;;;;;;;;;4887006;29;20224;-71
2022/02/14 04:47:38;;;;;;;4.20;2.43;;;;;;;;;;4915195;29;20231;-71
2022/02/14 04:50:06;;;;;;;4.93;2.80;;;;;;;;;;4895124;28;20249;-71
2022/02/14 04:52:31;;;;;;;2.87;2.53;;;;;;;;;;4908995;29;20232;-70
2022/02/14 04:54:57;;;;;;;3.37;2.60;;;;;;;;;;4915253;29;20214;-70
2022/02/14 04:57:22;;;;;;;3.70;2.70;;;;;;;;;;4893894;28;20298;-72
2022/02/14 04:59:48;;;;;;;3.40;2.53;;;;;;;;;;4915354;29;20349;-73
2022/02/14 05:02:18;;;;;;;4.57;2.87;;;;;;;;;;4897008;28;20215;-72
2022/02/14 05:04:44;;;;;;;5.40;2.50;;;;;;;;;;4954888;28;20748;-73
2022/02/14 05:07:09;;;;;;;7.50;3.10;;;;;;;;;;4914303;29;20219;-73
2022/02/14 05:09:37;;;;;;;5.30;2.40;;;;;;;;;;4883774;29;20232;-73
2022/02/14 05:12:08;;;;;;;6.37;2.70;;;;;;;;;;4893078;28;20222;-73
2022/02/14 05:14:35;;;;;;;3.40;2.37;;;;;;;;;;4922060;29;20246;-73
2022/02/14 05:17:05;;;;;;;4.07;2.33;;;;;;;;;;4913404;29;20219;-72
2022/02/14 05:19:32;;;;;;;4.60;2.80;;;;;;;;;;4918210;29;20238;-73
2022/02/14 05:21:58;;;;;;;5.07;2.40;;;;;;;;;;4886664;29;20281;-74
2022/02/14 05:24:25;;;;;;;4.53;2.50;;;;;;;;;;4916945;28;20226;-72
2022/02/14 05:26:53;;;;;;;4.60;2.30;;;;;;;;;;4904105;29;20290;-73
2022/02/14 05:29:19;;;;;;;3.53;2.50;;;;;;;;;;4921869;28;20215;-72
2022/02/14 05:31:44;;;;;;;6.97;2.90;;;;;;;;;;4904074;29;20729;-72
2022/02/14 05:34:10;;;;;;;5.80;2.33;;;;;;;;;;4918323;29;20259;-73
2022/02/14 05:36:42;;;;;;;6.77;2.50;;;;;;;;;;4902171;29;20223;-74
2022/02/14 05:39:08;;;;;;;3.90;2.50;;;;;;;;;;4900718;29;20603;-72
2022/02/14 05:41:37;;;;;;;4.07;2.60;;;;;;;;;;4911030;29;20218;-73
2022/02/14 05:44:04;;;;;;;4.73;2.43;;;;;;;;;;4930627;28;20231;-72
2022/02/14 05:46:32;;;;;;;4.23;2.70;;;;;;;;;;4918151;29;20227;-72
2022/02/14 05:48:58;;;;;;;6.03;2.37;;;;;;;;;;4912822;29;20215;-72
2022/02/14 05:51:26;;;;;;;3.07;2.20;;;;;;;;;;4920010;28;20685;-71
2022/02/14 05:53:54;;;;;;;5.63;2.27;;;;;;;;;;4906829;29;20607;-71
2022/02/14 05:56:21;;;;;;;3.10;2.10;;;;;;;;;;4905687;28;20219;-73
2022/02/14 05:58:47;;;;;;;5.47;2.30;;;;;;;;;;4917268;29;20214;-73
2022/02/14 06:01:15;;;;;;;3.83;2.33;;;;;;;;;;4916952;28;20227;-72
2022/02/14 06:03:43;;;;;;;4.43;2.60;;;;;;;;;;4924092;29;20226;-73
2022/02/14 06:06:08;;;;;;;4.33;2.20;;;;;;;;;;4920548;28;20689;-72
2022/02/14 06:08:36;;;;;;;2.83;2.03;;;;;;;;;;4930440;29;20234;-72
2022/02/14 06:11:02;;;;;;;3.30;2.10;;;;;;;;;;4921133;29;20250;-72
2022/02/14 06:13:28;;;;;;;3.90;2.50;;;;;;;;;;4923369;29;20269;-72
2022/02/14 06:15:56;;;;;;;5.27;2.50;;;;;;;;;;4938363;29;20234;-72
2022/02/14 06:18:22;;;;;;;4.73;1.93;;;;;;;;;;4917128;29;20235;-75
2022/02/14 06:20:47;;;;;;;4.37;2.40;;;;;;;;;;4917800;29;20274;-72
2022/02/14 06:23:16;;;;;;;4.93;2.40;;;;;;;;;;4906963;28;20710;-72
2022/02/14 06:25:42;;;;;;;4.07;2.20;;;;;;;;;;4895875;29;20227;-71
2022/02/14 06:28:08;;;;;;;4.13;2.47;;;;;;;;;;4924681;28;20218;-72
2022/02/14 06:30:36;;;;;;;3.93;2.20;;;;;;;;;;4906854;29;20224;-71
2022/02/14 06:33:02;;;;;;;3.97;2.53;;;;;;;;;;4914901;29;20231;-72
2022/02/14 06:35:29;;;;;;;6.60;2.30;;;;;;;;;;4904043;29;20283;-72
2022/02/14 06:38:00;;;;;;;4.20;2.50;;;;;;;;;;4903990;29;20224;-73
2022/02/14 06:40:25;;;;;;;3.43;2.27;;;;;;;;;;4908984;29;20610;-72
2022/02/14 06:42:54;;;;;;;3.83;2.37;;;;;;;;;;4938579;28;20286;-72
2022/02/14 06:45:20;;;;;;;4.87;2.23;;;;;;;;;;4919837;28;20284;-72
2022/02/14 06:47:45;;;;;;;8.50;2.40;;;;;;;;;;4919667;29;20235;-72
2022/02/14 06:50:11;;;;;;;4.60;2.70;;;;;;;;;;4919556;28;20230;-72
2022/02/14 06:52:38;;;;;;;4.40;2.40;;;;;;;;;;4905118;29;20231;-72
2022/02/14 06:55:09;;;;;;;6.03;2.20;;;;;;;;;;4930091;28;20222;-73
2022/02/14 06:57:37;;;;;;;5.37;2.37;;;;;;;;;;4920173;29;20588;-73
2022/02/14 07:00:08;;;;;;;3.83;2.07;;;;;;;;;;4904943;29;20647;-72
2022/02/14 07:02:34;;;;;;;4.60;2.63;;;;;;;;;;4901164;29;20772;-72
2022/02/14 07:05:05;;;;;;;3.93;2.10;;;;;;;;;;4916036;29;20227;-72
2022/02/14 07:07:31;;;;;;;4.83;2.40;;;;;;;;;;4919585;29;20238;-72
2022/02/14 07:10:02;;;;;;;4.07;1.93;;;;;;;;;;4907361;29;20239;-73
2022/02/14 07:12:28;;;;;;;5.03;2.43;;;;;;;;;;4900729;29;20238;-71
2022/02/14 07:14:53;;;;;;;4.30;2.00;;;;;;;;;;4916400;29;20907;-72
2022/02/14 07:17:19;;;;;;;3.50;2.07;;;;;;;;;;4899978;29;20224;-73
2022/02/14 07:19:47;;;;;;;2.80;1.90;;;;;;;;;;4926773;29;20261;-73
2022/02/14 07:22:12;;;;;;;4.83;2.40;;;;;;;;;;4934272;28;20653;-72
2022/02/14 07:24:38;;;;;;;3.90;2.27;;;;;;;;;;4911458;29;20279;-72
2022/02/14 07:27:04;;;;;;;6.60;2.30;;;;;;;;;;4900328;29;20232;-72
2022/02/14 07:29:32;;;;;;;3.00;1.93;;;;;;;;;;4923637;29;20230;-73
2022/02/14 07:32:00;;;;;;;3.03;1.83;;;;;;;;;;4903840;29;20292;-72
2022/02/14 07:34:25;;;;;;;4.53;2.10;;;;;;;;;;4929653;29;20227;-72
2022/02/14 07:36:53;;;;;;;3.33;1.90;;;;;;;;;;4900646;29;20223;-71
2022/02/14 07:39:22;;;;;;;4.23;2.07;;;;;;;;;;4923405;28;20783;-72
2022/02/14 07:41:48;;;;;;;5.60;2.00;;;;;;;;;;4923538;29;20230;-71
2022/02/14 07:44:16;;;;;;;2.60;1.90;;;;;;;;;;4935838;29;20267;-72
2022/02/14 07:46:44;;;;;;;3.23;2.00;;;;;;;;;;4919956;29;20227;-72
2022/02/14 07:49:10;;;;;;;4.33;2.07;;;;;;;;;;4905621;28;20314;-73
2022/02/14 07:51:38;;;;;;;3.33;2.10;;;;;;;;;;4907356;29;20230;-72
2022/02/14 07:54:04;;;;;;;3.37;1.70;;;;;;;;;;4911158;29;20224;-72
2022/02/14 07:56:30;;;;;;;4.53;1.90;;;;;;;;;;4939027;29;20242;-72
2022/02/14 07:58:58;;;;;;;2.73;1.80;;;;;;;;;;4922309;29;20258;-73
2022/02/14 08:01:26;;;;;;;4.20;2.00;;;;;;;;;;4906739;28;20302;-74
2022/02/14 08:03:51;;;;;;;2.57;1.80;;;;;;;;;;4911472;29;20315;-75
2022/02/14 08:06:17;;;;;;;2.90;1.90;;;;;;;;;;4920008;29;20233;-72
2022/02/14 08:08:43;;;;;;;3.20;1.93;;;;;;;;;;4944754;28;20243;-71
2022/02/14 08:11:10;;;;;;;3.53;2.20;;;;;;;;;;4903597;29;20231;-72
2022/02/14 08:13:38;;;;;;;5.27;2.10;;;;;;;;;;4919605;29;20697;-73
2022/02/14 08:16:04;;;;;;;5.40;1.83;;;;;;;;;;4916778;29;20218;-72
2022/02/14 08:18:33;;;;;;;4.07;2.17;;;;;;;;;;4916786;29;20223;-72
2022/02/14 08:20:59;;;;;;;3.50;2.00;;;;;;;;;;4937369;29;20222;-73
2022/02/14 08:23:27;;;;;;;3.70;1.83;;;;;;;;;;4922120;29;20230;-73
2022/02/14 08:25:52;;;;;;;2.43;1.70;;;;;;;;;;4893896;29;20222;-73
2022/02/14 08:28:18;;;;;;;4.37;2.00;;;;;;;;;;4902528;28;20230;-73
2022/02/14 08:30:44;;;;;;;4.20;2.00;;;;;;;;;;4940967;28;20233;-73
2022/02/14 08:33:10;;;;;;;5.37;2.00;;;;;;;;;;4894342;29;20238;-73
2022/02/14 08:35:39;;;;;;;4.93;2.20;;;;;;;;;;4900939;29;20258;-73
2022/02/14 08:38:07;;;;;;;3.43;2.10;;;;;;;;;;4907537;28;20237;-73
2022/02/14 08:40:35;;;;;;;2.83;1.97;;;;;;;;;;4935899;29;20717;-73
2022/02/14 08:43:01;;;;;;;2.90;1.80;;;;;;;;;;4887534;29;20225;-74
2022/02/14 08:45:28;;;;;;;4.00;1.97;;;;;;;;;;4903184;29;20762;-74
2022/02/14 08:47:53;;;;;;;4.93;1.97;;;;;;;;;;4918565;29;20223;-73
2022/02/14 08:50:19;;;;;;;4.43;1.70;;;;;;;;;;4892206;28;20226;-73
2022/02/14 08:52:45;;;;;;;3.73;1.83;;;;;;;;;;4922298;29;20230;-73
2022/02/14 08:55:14;;;;;;;3.00;1.60;;;;;;;;;;4912498;28;20311;-73
2022/02/14 08:57:41;;;;;;;3.77;2.10;;;;;;;;;;4933308;29;20227;-73
2022/02/14 09:00:07;;;;;;;3.67;1.80;;;;;;;;;;4887037;29;20603;-73
2022/02/14 09:02:33;;;;;;;5.77;2.47;;;;;;;;;;4887320;29;20231;-73
2022/02/14 09:05:03;;;;;;;5.07;2.17;;;;;;;;;;4903092;29;20701;-73
2022/02/14 09:07:32;;;;;;;4.97;2.10;;;;;;;;;;4920871;29;20226;-73
2022/02/14 09:10:02;;;;;;;4.13;2.20;;;;;;;;;;4873263;29;20277;-73
2022/02/14 09:12:31;;;;;;;3.27;1.83;;;;;;;;;;4929289;29;20334;-73
2022/02/14 09:14:58;;;;;;;3.50;1.80;;;;;;;;;;4885075;29;20699;-73
2022/02/14 09:17:26;;;;;;;2.63;1.80;;;;;;;;;;4905152;29;20347;-73
2022/02/14 09:19:56;;;;;;;3.50;1.80;;;;;;;;;;4926832;29;20363;-73
2022/02/14 09:22:22;;;;;;;3.73;1.97;;;;;;;;;;4932409;28;20242;-73
2022/02/14 09:24:48;;;;;;;3.97;1.97;;;;;;;;;;4906040;29;20284;-74
2022/02/14 09:27:17;;;;;;;3.33;2.00;;;;;;;;;;4908358;29;20223;-73
2022/02/14 09:29:43;;;;;;;3.20;1.77;;;;;;;;;;4917943;29;20300;-73
2022/02/14 09:32:11;;;;;;;2.97;2.00;;;;;;;;;;4914281;28;20227;-73
2022/02/14 09:34:41;;;;;;;3.20;1.80;;;;;;;;;;4954540;28;20281;-73
2022/02/14 09:37:08;;;;;;;3.03;1.80;;;;;;;;;;4925538;29;20224;-72
2022/02/14 09:39:36;;;;;;;3.70;1.70;;;;;;;;;;4909170;29;20247;-72
2022/02/14 09:42:02;;;;;;;3.10;1.80;;;;;;;;;;4917816;29;20234;-73
2022/02/14 09:44:28;;;;;;;2.83;1.63;;;;;;;;;;4936577;29;20723;-72
2022/02/14 09:46:53;;;;;;;3.70;1.70;;;;;;;;;;4921226;29;20243;-72
2022/02/14 09:49:25;;;;;;;4.83;1.90;;;;;;;;;;4937159;28;20234;-73
2022/02/14 09:51:56;;;;;;;3.33;1.70;;;;;;;;;;4902084;29;20631;-73
2022/02/14 09:54:24;;;;;;;4.50;1.90;;;;;;;;;;4925105;29;20242;-74
2022/02/14 09:56:53;;;;;;;3.30;1.80;;;;;;;;;;4902116;29;20223;-73
2022/02/14 09:59:23;;;;;;;2.70;1.60;;;;;;;;;;4902670;28;20729;-73
2022/02/14 10:01:50;;;;;;;3.50;1.80;;;;;;;;;;4923901;29;20754;-73
2022/02/14 10:04:15;;;;;;;3.43;1.80;;;;;;;;;;4904423;28;20234;-73
2022/02/14 10:06:42;;;;;;;2.93;1.70;;;;;;;;;;4891554;29;20215;-72
2022/02/14 10:09:16;;;;;;;6.90;2.50;;;;;;;;;;4920104;28;20227;-72
2022/02/14 10:12:09;;;;;;;4.70;3.00;;;;;;;;;;4946564;28;20226;-73
2022/02/14 10:14:38;;;;;;;3.13;1.60;;;;;;;;;;4882782;29;20614;-72
2022/02/14 10:17:14;;;;;;;3.20;1.90;;;;;;;;;;4925784;28;20636;-72
2022/02/14 10:19:53;;;;;;;4.47;1.70;;;;;;;;;;4896752;29;20229;-73
2022/02/14 10:22:18;;;;;;;3.37;1.57;;;;;;;;;;4912965;28;20314;-74
2022/02/14 10:24:49;;;;;;;2.53;1.70;;;;;;;;;;4904901;29;20226;-72
2022/02/14 10:27:15;;;;;;;3.23;1.53;;;;;;;;;;4937192;28;20791;-72
2022/02/14 10:29:41;;;;;;;2.97;1.60;;;;;;;;;;4921155;29;20306;-74
2022/02/14 10:32:09;;;;;;;4.00;1.60;;;;;;;;;;4916207;28;20625;-72
2022/02/14 10:34:40;;;;;;;1.67;1.57;;;;;;;;;;4924832;29;20229;-71
2022/02/14 10:37:11;;;;;;;3.13;1.80;;;;;;;;;;4920232;28;20219;-72
2022/02/14 10:39:39;;;;;;;3.37;1.53;;;;;;;;;;4906018;29;20294;-72
2022/02/14 10:42:07;;;;;;;2.80;1.73;;;;;;;;;;4933390;29;20229;-72
2022/02/14 10:47:30;;;;;;;3.10;1.73;;;;;;;;;;4922864;28;20222;-72
2022/02/14 10:50:10;;;;;;;4.30;1.50;;;;;;;;;;4929931;29;20622;-72
2022/02/14 10:52:43;;;;;;;5.73;1.60;;;;;;;;;;4920892;29;20310;-71
2022/02/14 10:55:12;;;;;;;1.63;1.50;;;;;;;;;;4900870;29;20227;-71
2022/02/14 10:57:39;;;;;;;1.77;1.53;;;;;;;;;;4877234;29;20231;-72
2022/02/14 11:00:09;;;;;;;3.47;1.80;;;;;;;;;;4899653;29;20670;-73
2022/02/14 11:02:35;;;;;;;3.73;2.20;;;;;;;;;;4915366;29;20666;-72
2022/02/14 11:05:04;;;;;;;3.73;1.60;;;;;;;;;;4924579;29;20226;-72
2022/02/14 11:07:30;;;;;;;2.77;2.07;;;;;;;;;;4917397;29;20226;-72
2022/02/14 11:09:59;;;;;;;3.17;1.73;;;;;;;;;;4885971;29;20282;-71
2022/02/14 11:12:29;;;;;;;2.83;1.53;;;;;;;;;;4886561;28;20763;-73
2022/02/14 11:14:55;;;;;;;3.43;1.67;;;;;;;;;;4913641;29;20274;-72
2022/02/14 11:17:28;;;;;;;3.10;1.60;;;;;;;;;;4912525;29;20215;-71
2022/02/14 11:19:56;;;;;;;3.47;1.50;;;;;;;;;;4886520;29;20223;-71
2022/02/14 11:22:26;;;;;;;4.10;1.63;;;;;;;;;;4884767;29;20271;-72
2022/02/14 11:25:09;;;;;;;2.70;1.30;;;;;;;;;;4924675;29;20226;-73
2022/02/14 11:28:12;;;;;;;3.43;1.57;;;;;;;;;;4938824;29;20222;-72
2022/02/14 11:30:43;;;;;;;1.57;1.40;;;;;;;;;;4886847;29;20224;-71
2022/02/14 11:33:13;;;;;;;3.20;1.50;;;;;;;;;;4893754;28;20701;-73
2022/02/14 11:35:59;;;;;;;3.00;1.93;;;;;;;;;;4901695;29;20246;-73
2022/02/14 11:38:50;;;;;;;3.40;1.50;;;;;;;;;;4907150;28;20305;-74
2022/02/14 11:41:22;;;;;;;2.70;1.50;;;;;;;;;;4923326;29;20309;-72
2022/02/14 11:43:47;;;;;;;2.80;1.40;;;;;;;;;;4920572;29;20255;-73
2022/02/14 11:46:18;;;;;;;3.83;1.47;;;;;;;;;;4894313;29;20224;-73
2022/02/14 11:49:03;;;;;;;2.60;1.40;;;;;;;;;;4888705;29;20223;-72
2022/02/14 11:51:53;;;;;;;1.90;1.20;;;;;;;;;;4925079;29;20690;-72
2022/02/14 11:54:45;;;;;;;2.03;1.40;;;;;;;;;;4916399;28;20322;-73
2022/02/14 11:57:17;;;;;;;4.13;1.73;;;;;;;;;;4913747;28;20234;-73
2022/02/14 11:59:43;;;;;;;2.27;1.30;;;;;;;;;;4942889;28;20251;-72
2022/02/14 12:02:09;;;;;;;3.50;1.60;;;;;;;;;;4902711;29;20250;-72
2022/02/14 12:04:38;;;;;;;2.37;1.60;;;;;;;;;;4930742;29;20309;-73
2022/02/14 12:07:15;;;;;;;3.17;1.57;;;;;;;;;;4938020;28;20238;-71
2022/02/14 12:09:56;;;;;;;5.33;1.60;;;;;;;;;;4943912;28;20282;-72
2022/02/14 12:12:43;;;;;;;6.63;4.43;;;;;;;;;;4918405;29;20298;-72
2022/02/14 12:21:00;;;;;;;2.47;1.50;;;;;;;;;;4933493;29;20753;-72
2022/02/14 12:23:30;;;;;;;2.40;1.30;;;;;;;;;;4883708;29;20228;-72
2022/02/14 12:25:59;;;;;;;3.27;1.30;;;;;;;;;;4904405;29;20235;-71
2022/02/14 12:28:27;;;;;;;3.13;1.60;;;;;;;;;;4903880;29;20307;-71
2022/02/14 12:30:59;;;;;;;3.13;1.40;;;;;;;;;;4914617;29;20227;-72
2022/02/14 12:33:25;;;;;;;2.37;1.60;;;;;;;;;;4896910;29;20229;-72
2022/02/14 12:36:00;;;;;;;2.87;1.33;;;;;;;;;;4925392;29;20219;-72
2022/02/14 12:38:34;;;;;;;3.33;1.23;;;;;;;;;;4902781;29;20340;-72
2022/02/14 12:41:01;;;;;;;1.57;1.40;;;;;;;;;;4928675;29;20435;-73
2022/02/14 12:43:45;;;;;;;1.33;1.23;;;;;;;;;;4916863;29;20245;-73
2022/02/14 12:46:21;;;;;;;2.07;1.50;;;;;;;;;;4908937;29;20250;-73
2022/02/14 12:48:55;;;;;;;2.77;1.40;;;;;;;;;;4919592;29;20696;-73
2022/02/14 12:51:27;;;;;;;1.47;1.10;;;;;;;;;;4887091;29;20607;-73
2022/02/14 12:53:57;;;;;;;3.60;1.60;;;;;;;;;;4919201;29;20238;-72
2022/02/14 12:56:24;;;;;;;2.30;1.40;;;;;;;;;;4921429;28;20227;-73
2022/02/14 12:58:56;;;;;;;1.43;1.20;;;;;;;;;;4922207;29;20259;-73
2022/02/14 13:01:23;;;;;;;3.70;2.50;;;;;;;;;;4918856;29;20219;-73
2022/02/14 13:03:58;;;;;;;5.10;2.90;;;;;;;;;;4901445;29;20239;-74
2022/02/14 13:06:42;;;;;;;3.57;1.93;;;;;;;;;;4912194;29;20720;-73
2022/02/14 13:09:34;;;;;;;4.07;1.60;;;;;;;;;;4893738;29;20228;-73
2022/02/14 13:12:05;;;;;;;3.57;1.60;;;;;;;;;;4902241;29;20232;-73
2022/02/14 13:14:44;;;;;;;1.73;1.37;;;;;;;;;;4885668;29;20678;-72
2022/02/14 13:17:14;;;;;;;1.60;1.50;;;;;;;;;;4912860;28;20269;-73
2022/02/14 13:20:01;;;;;;;2.67;1.50;;;;;;;;;;4905990;29;20230;-73
2022/02/14 13:22:30;;;;;;;2.97;1.50;;;;;;;;;;4914307;29;20223;-74
2022/02/14 13:25:01;;;;;;;1.60;1.43;;;;;;;;;;4914715;29;20223;-73
2022/02/14 13:27:34;;;;;;;2.80;2.00;;;;;;;;;;4883188;29;20240;-74
2022/02/14 13:30:07;;;;;;;2.10;1.40;;;;;;;;;;4933732;29;20223;-73
2022/02/14 13:32:38;;;;;;;2.90;1.33;;;;;;;;;;4936283;29;20241;-72
2022/02/14 13:35:06;;;;;;;3.23;1.40;;;;;;;;;;4910869;28;20705;-73
2022/02/14 13:37:43;;;;;;;4.27;2.00;;;;;;;;;;4917048;29;20274;-72
2022/02/14 13:40:28;;;;;;;2.30;1.50;;;;;;;;;;4921507;28;20760;-73
2022/02/14 13:43:06;;;;;;;2.10;1.40;;;;;;;;;;4900570;29;20253;-72
2022/02/14 13:45:44;;;;;;;4.57;1.60;;;;;;;;;;4884999;29;20228;-72
2022/02/14 13:48:46;;;;;;;3.67;1.83;;;;;;;;;;4934488;28;20224;-72
2022/02/14 13:51:28;;;;;;;2.00;1.40;;;;;;;;;;4904711;28;20307;-73
2022/02/14 13:53:58;;;;;;;4.57;1.47;;;;;;;;;;4916830;29;20228;-71
2022/02/14 13:56:29;;;;;;;2.50;1.90;;;;;;;;;;4913044;28;20246;-73
2022/02/14 13:58:57;;;;;;;3.13;2.00;;;;;;;;;;4919056;29;20307;-71
2022/02/14 14:01:27;;;;;;;2.90;1.77;;;;;;;;;;4894020;29;20223;-72
2022/02/14 14:03:56;;;;;;;2.80;1.77;;;;;;;;;;4908778;29;20253;-75
2022/02/14 14:06:32;;;;;;;3.93;1.60;;;;;;;;;;4928695;28;20242;-72
2022/02/14 14:08:58;;;;;;;2.63;1.33;;;;;;;;;;4927789;28;20227;-73
2022/02/14 14:11:34;;;;;;;2.13;1.50;;;;;;;;;;4931388;28;20222;-71
2022/02/14 14:14:07;;;;;;;3.97;1.83;;;;;;;;;;4893004;29;20235;-71
2022/02/14 14:16:36;;;;;;;2.87;1.40;;;;;;;;;;4930694;29;20309;-71
2022/02/14 14:19:06;;;;;;;4.37;1.77;;;;;;;;;;4903950;29;20314;-72
2022/02/14 14:21:34;;;;;;;2.43;1.60;;;;;;;;;;4922263;29;20231;-72
2022/02/14 14:23:59;;;;;;;3.07;1.63;;;;;;;;;;4918163;29;20285;-70
2022/02/14 14:26:27;;;;;;;2.13;1.50;;;;;;;;;;4928500;28;20227;-71
2022/02/14 14:28:52;;;;;;;2.77;1.67;;;;;;;;;;4953602;28;20229;-71
2022/02/14 14:31:18;;;;;;;4.43;1.90;;;;;;;;;;4944765;28;20249;-72
2022/02/14 14:33:44;;;;;;;3.07;1.90;;;;;;;;;;4895519;29;20250;-72
2022/02/14 14:36:12;;;;;;;3.73;1.80;;;;;;;;;;4933347;28;20229;-71
2022/02/14 14:38:41;;;;;;;2.67;1.60;;;;;;;;;;4930423;29;20227;-71
2022/02/14 14:41:06;;;;;;;2.87;1.80;;;;;;;;;;4919116;28;20245;-71
2022/02/14 14:43:37;;;;;;;3.30;1.57;;;;;;;;;;4902903;29;20675;-71
2022/02/14 14:46:04;;;;;;;2.73;1.77;;;;;;;;;;4899941;29;20228;-72
2022/02/14 14:48:31;;;;;;;3.67;2.10;;;;;;;;;;4912240;29;20222;-70
2022/02/14 14:50:57;;;;;;;6.03;1.60;;;;;;;;;;4888505;29;20302;-71
2022/02/14 14:53:22;;;;;;;4.07;1.87;;;;;;;;;;4906725;28;20238;-73
2022/02/14 14:55:53;;;;;;;2.17;1.60;;;;;;;;;;4907728;29;20228;-70
2022/02/14 14:58:21;;;;;;;3.13;2.00;;;;;;;;;;4897987;29;20224;-71
2022/02/14 15:00:47;;;;;;;2.07;1.70;;;;;;;;;;4899577;29;20242;-71